Time;durP1;ratioP1;P1;durP2;ratioP2;P2;SDS_P1;SDS_P2;PMS_P1;PMS_P2;Temp;Humidity;BMP_temperature;BMP_pressure;BME280_temperature;BME280_humidity;BME280_pressure;Samples;Min_cycle;Max_cycle;Signal;HPM_P1;HPM_P2
2021/07/08 00:01:47;;;;;;;4.97;3.03;;;26.20;99.90;;;;;;5013608;28;20042;-88
2021/07/08 00:04:13;;;;;;;9.77;3.10;;;26.10;99.90;;;;;;5000856;28;20030;-88
2021/07/08 00:06:39;;;;;;;9.50;3.13;;;26.10;99.90;;;;;;5015108;28;20502;-87
2021/07/08 00:09:06;;;;;;;4.15;2.95;;;26.10;99.90;;;;;;5014254;28;20121;-88
2021/07/08 00:11:32;;;;;;;5.97;3.20;;;26.10;99.90;;;;;;5015846;28;20018;-88
2021/07/08 00:13:58;;;;;;;4.80;3.05;;;26.10;99.90;;;;;;5021084;28;20521;-88
2021/07/08 00:16:24;;;;;;;5.80;3.08;;;26.10;99.90;;;;;;5017459;28;20379;-85
2021/07/08 00:18:52;;;;;;;9.30;3.17;;;26.10;99.90;;;;;;5014366;28;20032;-86
2021/07/08 00:21:19;;;;;;;8.40;2.95;;;26.10;99.90;;;;;;5014210;28;20033;-84
2021/07/08 00:23:45;;;;;;;5.03;3.50;;;26.10;99.90;;;;;;5013845;28;20119;-83
2021/07/08 00:26:10;;;;;;;6.60;3.05;;;26.10;99.90;;;;;;5014002;28;20049;-84
2021/07/08 00:28:36;;;;;;;10.35;3.47;;;26.00;99.90;;;;;;5013210;28;20063;-82
2021/07/08 00:31:02;;;;;;;5.63;3.88;;;26.00;99.90;;;;;;4995789;28;20022;-88
2021/07/08 00:33:28;;;;;;;4.97;2.92;;;26.00;99.90;;;;;;5013108;28;20106;-88
2021/07/08 00:35:54;;;;;;;4.47;2.90;;;26.00;99.90;;;;;;5013060;28;20049;-86
2021/07/08 00:38:20;;;;;;;5.95;2.75;;;26.00;99.90;;;;;;4998788;28;20395;-88
2021/07/08 00:40:45;;;;;;;8.65;2.83;;;26.00;99.90;;;;;;5013139;28;20129;-84
2021/07/08 00:43:12;;;;;;;5.78;2.38;;;26.00;99.90;;;;;;5013049;28;20025;-87
2021/07/08 00:45:38;;;;;;;5.63;2.60;;;25.90;99.90;;;;;;5013209;28;20053;-88
2021/07/08 00:48:04;;;;;;;4.07;3.20;;;25.90;99.90;;;;;;5012569;28;20115;-87
2021/07/08 00:50:34;;;;;;;4.90;2.60;;;25.90;99.90;;;;;;5012259;28;20030;-88
2021/07/08 00:53:01;;;;;;;9.15;3.25;;;25.90;99.90;;;;;;5012695;28;20025;-87
2021/07/08 00:55:26;;;;;;;4.85;2.55;;;25.80;99.90;;;;;;4995652;28;20036;-85
2021/07/08 00:57:52;;;;;;;4.45;2.38;;;25.80;99.90;;;;;;5012027;28;20394;-85
2021/07/08 01:00:27;;;;;;;9.45;2.20;;;25.80;99.90;;;;;;5012210;28;20034;-89
2021/07/08 01:02:54;;;;;;;2.95;2.38;;;25.70;99.90;;;;;;5008838;28;20113;-89
2021/07/08 01:05:24;;;;;;;5.93;2.60;;;25.70;99.90;;;;;;4993863;28;20441;-88
2021/07/08 01:07:51;;;;;;;6.55;2.40;;;25.70;99.90;;;;;;5009124;28;20026;-88
2021/07/08 01:10:17;;;;;;;3.33;2.60;;;25.70;99.90;;;;;;4994473;28;20470;-89
2021/07/08 01:12:43;;;;;;;8.98;2.70;;;25.70;99.90;;;;;;5010971;28;20022;-88
2021/07/08 01:15:11;;;;;;;4.45;2.72;;;25.70;99.90;;;;;;4995193;28;20084;-88
2021/07/08 01:17:39;;;;;;;5.85;2.50;;;25.60;99.90;;;;;;5012448;28;20028;-89
2021/07/08 01:20:07;;;;;;;5.32;2.25;;;25.70;99.90;;;;;;5011544;28;20033;-88
2021/07/08 01:22:36;;;;;;;6.25;2.90;;;25.70;99.90;;;;;;5011582;28;20128;-87
2021/07/08 01:25:04;;;;;;;8.35;2.28;;;25.70;99.90;;;;;;5012161;28;20026;-86
2021/07/08 01:27:33;;;;;;;2.10;1.88;;;25.70;99.90;;;;;;5011932;28;20026;-87
2021/07/08 01:30:02;;;;;;;3.65;2.45;;;25.70;99.90;;;;;;5012153;28;20059;-86
2021/07/08 01:32:27;;;;;;;3.70;2.13;;;25.70;99.90;;;;;;5012368;28;20030;-84
2021/07/08 01:34:53;;;;;;;4.55;2.00;;;25.70;99.90;;;;;;5012539;28;20495;-85
2021/07/08 01:37:19;;;;;;;5.45;2.38;;;25.70;99.90;;;;;;5012107;28;20025;-85
2021/07/08 01:39:45;;;;;;;6.05;1.90;;;25.80;99.90;;;;;;5012813;28;20037;-84
2021/07/08 01:42:12;;;;;;;4.80;2.00;;;25.70;99.90;;;;;;5012736;28;20069;-86
2021/07/08 01:44:37;;;;;;;4.05;2.13;;;25.70;99.90;;;;;;5012239;28;20502;-85
2021/07/08 01:47:04;;;;;;;4.18;2.00;;;25.70;99.90;;;;;;5012389;28;20032;-87
2021/07/08 01:49:29;;;;;;;4.38;1.90;;;25.70;99.90;;;;;;5012250;28;20034;-87
2021/07/08 01:51:55;;;;;;;4.60;2.20;;;25.70;99.90;;;;;;5012423;28;20032;-87
2021/07/08 01:54:21;;;;;;;3.83;2.10;;;25.70;99.90;;;;;;5012395;28;20064;-86
2021/07/08 01:56:47;;;;;;;5.43;2.05;;;25.70;99.90;;;;;;5012002;28;20026;-88
2021/07/08 01:59:14;;;;;;;4.07;1.90;;;25.70;99.90;;;;;;5012841;28;20014;-82
2021/07/08 02:01:40;;;;;;;2.05;1.60;;;25.70;99.90;;;;;;5011915;28;20084;-81
2021/07/08 02:04:06;;;;;;;6.78;1.88;;;25.70;99.90;;;;;;5012532;28;20022;-86
2021/07/08 02:06:32;;;;;;;5.60;1.88;;;25.80;99.90;;;;;;5012433;28;20025;-87
2021/07/08 02:08:58;;;;;;;8.25;2.22;;;25.80;99.90;;;;;;5011694;28;20038;-84
2021/07/08 02:11:24;;;;;;;7.10;1.88;;;25.90;99.90;;;;;;5012093;28;20033;-82
2021/07/08 02:13:53;;;;;;;3.85;1.80;;;25.90;99.90;;;;;;5011945;28;20034;-87
2021/07/08 02:16:19;;;;;;;3.45;1.85;;;25.90;99.90;;;;;;5012358;28;20425;-81
2021/07/08 02:18:45;;;;;;;9.65;1.85;;;25.90;99.90;;;;;;4994222;28;20109;-85
2021/07/08 02:21:13;;;;;;;3.15;1.80;;;25.90;99.90;;;;;;5011927;28;20374;-84
2021/07/08 02:23:39;;;;;;;4.32;1.95;;;26.00;99.90;;;;;;5012448;28;20053;-87
2021/07/08 02:26:06;;;;;;;4.82;1.73;;;26.00;99.90;;;;;;5012889;28;20022;-84
2021/07/08 02:28:32;;;;;;;7.55;2.22;;;26.10;99.90;;;;;;5011995;28;20128;-87
2021/07/08 02:30:58;;;;;;;2.35;1.80;;;26.10;99.90;;;;;;4994069;28;20505;-86
2021/07/08 02:33:24;;;;;;;4.55;2.08;;;26.20;99.90;;;;;;5012321;28;20022;-87
2021/07/08 02:35:50;;;;;;;2.90;1.90;;;26.20;99.90;;;;;;4994645;28;20044;-88
2021/07/08 02:38:19;;;;;;;6.50;1.90;;;26.20;99.90;;;;;;5012365;28;20029;-89
2021/07/08 02:40:48;;;;;;;4.45;2.28;;;26.30;99.90;;;;;;5012440;28;20026;-88
2021/07/08 02:43:13;;;;;;;6.60;2.30;;;26.30;99.90;;;;;;5012453;28;20033;-85
2021/07/08 02:45:41;;;;;;;4.13;2.00;;;26.30;99.90;;;;;;5012503;28;20537;-85
2021/07/08 02:48:08;;;;;;;4.03;2.00;;;26.30;99.90;;;;;;5012103;28;20062;-86
2021/07/08 02:50:35;;;;;;;11.32;1.98;;;26.30;99.90;;;;;;5015573;28;20033;-84
2021/07/08 02:53:02;;;;;;;8.25;2.08;;;26.30;99.90;;;;;;5018654;28;20029;-83
2021/07/08 02:55:30;;;;;;;2.20;1.63;;;26.40;99.90;;;;;;5013007;28;20528;-80
2021/07/08 02:57:56;;;;;;;6.38;1.80;;;26.40;99.90;;;;;;4993890;28;20026;-87
2021/07/08 03:00:23;;;;;;;2.63;1.92;;;26.40;99.90;;;;;;5011919;28;20379;-88
2021/07/08 03:02:57;;;;;;;3.70;1.80;;;26.50;99.90;;;;;;5012056;28;20033;-86
2021/07/08 03:05:23;;;;;;;6.07;1.70;;;26.50;99.90;;;;;;5012085;28;20030;-83
2021/07/08 03:07:49;;;;;;;6.70;1.90;;;26.50;99.90;;;;;;5011587;28;20064;-86
2021/07/08 03:10:18;;;;;;;9.57;2.20;;;26.50;99.90;;;;;;5012172;28;20049;-88
2021/07/08 03:12:44;;;;;;;5.13;2.05;;;26.50;99.90;;;;;;5012545;28;20026;-84
2021/07/08 03:15:12;;;;;;;7.60;2.00;;;26.60;99.90;;;;;;5012584;28;20049;-87
2021/07/08 03:17:39;;;;;;;4.07;1.83;;;26.60;99.90;;;;;;4994787;28;20475;-87
2021/07/08 03:20:10;;;;;;;6.15;1.48;;;26.50;99.90;;;;;;5011226;28;20076;-87
2021/07/08 03:22:36;;;;;;;2.85;2.15;;;26.50;99.90;;;;;;4993630;28;20039;-86
2021/07/08 03:25:04;;;;;;;3.70;1.85;;;26.50;99.90;;;;;;5006111;28;20033;-86
2021/07/08 03:27:29;;;;;;;2.50;1.70;;;26.40;99.90;;;;;;5014998;28;20121;-88
2021/07/08 03:30:04;;;;;;;3.30;1.73;;;26.50;99.90;;;;;;5014975;28;20523;-88
2021/07/08 03:32:30;;;;;;;4.30;2.00;;;26.50;99.90;;;;;;5014383;28;20022;-86
2021/07/08 03:34:56;;;;;;;5.00;1.60;;;26.50;99.90;;;;;;4997644;28;20068;-87
2021/07/08 03:37:21;;;;;;;6.40;1.88;;;26.50;99.90;;;;;;5015140;28;20022;-86
2021/07/08 03:39:47;;;;;;;2.72;1.88;;;26.50;99.90;;;;;;5014886;28;20030;-89
2021/07/08 03:42:13;;;;;;;9.27;2.13;;;26.50;99.90;;;;;;5014895;28;20026;-88
2021/07/08 03:44:39;;;;;;;5.57;1.90;;;26.40;99.90;;;;;;5014838;28;20014;-86
2021/07/08 03:47:05;;;;;;;4.00;1.73;;;26.50;99.90;;;;;;5014775;28;20104;-87
2021/07/08 03:49:30;;;;;;;6.57;2.25;;;26.60;99.90;;;;;;5014776;28;20030;-89
2021/07/08 03:51:56;;;;;;;3.55;1.92;;;26.60;99.90;;;;;;5014810;28;20018;-86
2021/07/08 03:54:22;;;;;;;4.47;1.77;;;26.60;99.90;;;;;;5014790;28;20112;-86
2021/07/08 03:56:47;;;;;;;4.82;2.05;;;26.60;99.90;;;;;;5014666;28;20030;-88
2021/07/08 03:59:13;;;;;;;4.65;1.65;;;26.70;99.90;;;;;;5014597;28;20022;-89
2021/07/08 04:01:39;;;;;;;10.27;2.30;;;26.80;99.90;;;;;;5015402;28;20030;-87
2021/07/08 04:04:05;;;;;;;6.32;1.80;;;26.80;99.90;;;;;;5014516;28;20021;-88
2021/07/08 04:06:34;;;;;;;4.05;1.67;;;27.00;99.90;;;;;;5014320;28;20022;-87
2021/07/08 04:09:02;;;;;;;4.63;1.70;;;27.10;99.90;;;;;;5014360;28;20034;-86
2021/07/08 04:11:31;;;;;;;2.67;1.70;;;27.10;99.90;;;;;;5014613;28;20045;-86
2021/07/08 04:13:57;;;;;;;8.15;1.85;;;27.20;99.90;;;;;;5014149;28;20026;-86
2021/07/08 04:16:23;;;;;;;4.85;1.83;;;27.20;99.90;;;;;;5014082;28;20018;-89
2021/07/08 04:18:48;;;;;;;5.85;2.03;;;27.40;99.90;;;;;;5013972;28;20041;-86
2021/07/08 04:21:14;;;;;;;4.32;2.10;;;27.40;99.90;;;;;;5014222;28;20710;-89
2021/07/08 04:23:40;;;;;;;3.17;1.88;;;27.50;99.90;;;;;;5014407;28;20081;-90
2021/07/08 04:26:06;;;;;;;6.18;1.90;;;27.70;99.90;;;;;;5014600;28;20021;-89
2021/07/08 04:28:32;;;;;;;10.18;1.90;;;27.80;99.90;;;;;;5014129;28;20120;-89
2021/07/08 04:30:58;;;;;;;8.95;1.70;;;28.00;99.90;;;;;;5013839;28;20033;-87
2021/07/08 04:33:24;;;;;;;5.78;1.90;;;28.20;99.90;;;;;;5012331;28;20030;-90
2021/07/08 04:35:50;;;;;;;5.47;2.13;;;28.30;99.90;;;;;;5012925;28;20068;-85
2021/07/08 04:38:17;;;;;;;4.28;2.20;;;28.60;99.90;;;;;;5013159;28;20026;-86
2021/07/08 04:40:44;;;;;;;6.22;2.05;;;28.90;99.90;;;;;;5018179;28;20093;-87
2021/07/08 04:43:12;;;;;;;5.53;2.30;;;29.40;99.90;;;;;;5012806;28;20022;-87
2021/07/08 04:45:37;;;;;;;7.78;1.85;;;30.00;99.90;;;;;;5011592;28;20018;-87
2021/07/08 04:48:05;;;;;;;6.93;2.63;;;30.50;99.90;;;;;;5012409;28;20029;-88
2021/07/08 04:50:31;;;;;;;4.22;1.92;;;30.90;99.20;;;;;;5012307;28;20033;-88
2021/07/08 04:52:57;;;;;;;2.47;1.90;;;31.60;98.50;;;;;;5011093;28;20022;-88
2021/07/08 04:55:24;;;;;;;6.72;2.45;;;32.10;97.70;;;;;;5012567;28;20069;-86
2021/07/08 04:57:51;;;;;;;5.28;1.92;;;32.70;97.00;;;;;;5012290;28;20439;-86
2021/07/08 05:00:21;;;;;;;5.22;2.67;;;33.40;96.20;;;;;;5001476;28;20100;-83
2021/07/08 05:02:51;;;;;;;5.93;1.90;;;33.60;95.00;;;;;;5020005;28;20022;-88
2021/07/08 05:05:17;;;;;;;8.43;2.10;;;33.90;94.50;;;;;;5013053;28;20367;-89
2021/07/08 05:07:43;;;;;;;3.08;1.95;;;34.30;93.80;;;;;;5013242;28;20018;-83
2021/07/08 05:10:15;;;;;;;3.50;1.67;;;34.60;93.20;;;;;;5012685;28;20030;-84
2021/07/08 05:12:41;;;;;;;3.55;1.58;;;34.90;92.80;;;;;;5021606;28;20413;-83
2021/07/08 05:15:10;;;;;;;6.32;1.50;;;35.50;92.10;;;;;;5027665;28;20438;-82
2021/07/08 05:17:36;;;;;;;4.20;1.50;;;35.90;91.50;;;;;;5026695;28;20026;-83
2021/07/08 05:20:04;;;;;;;5.90;1.70;;;36.50;90.70;;;;;;5015960;28;20025;-79
2021/07/08 05:22:37;;;;;;;5.43;1.40;;;37.10;90.00;;;;;;5012113;28;20662;-79
2021/07/08 05:25:05;;;;;;;2.38;1.58;;;37.60;88.70;;;;;;5018322;28;20076;-81
2021/07/08 05:27:31;;;;;;;2.25;1.70;;;38.10;87.20;;;;;;5016996;28;20030;-83
2021/07/08 05:29:57;;;;;;;9.60;2.58;;;38.60;87.30;;;;;;5020171;28;20087;-81
2021/07/08 05:32:23;;;;;;;5.90;1.67;;;38.90;85.10;;;;;;5014596;28;20018;-83
2021/07/08 05:34:48;;;;;;;5.75;1.75;;;39.40;83.90;;;;;;5012922;28;20520;-83
2021/07/08 05:37:14;;;;;;;11.50;2.00;;;39.80;82.30;;;;;;5012569;28;20502;-83
2021/07/08 05:39:42;;;;;;;13.90;2.20;;;40.40;81.40;;;;;;5012903;28;20022;-86
2021/07/08 05:42:08;;;;;;;10.02;1.98;;;40.60;79.80;;;;;;5012456;28;20029;-84
2021/07/08 05:44:34;;;;;;;7.43;1.90;;;41.00;79.30;;;;;;5013428;28;20040;-81
2021/07/08 05:47:00;;;;;;;6.60;1.92;;;40.90;78.40;;;;;;5012129;28;20525;-80
2021/07/08 05:49:26;;;;;;;6.07;1.40;;;40.90;78.20;;;;;;5012370;28;20442;-79
2021/07/08 05:51:54;;;;;;;4.13;1.45;;;41.10;77.00;;;;;;5017355;28;20033;-80
2021/07/08 05:54:19;;;;;;;4.93;1.23;;;40.70;76.60;;;;;;5015328;28;20036;-81
2021/07/08 05:56:45;;;;;;;3.92;1.27;;;40.60;76.20;;;;;;5027184;28;20018;-82
2021/07/08 05:59:11;;;;;;;5.43;1.40;;;40.80;77.00;;;;;;5019573;28;20024;-83
2021/07/08 06:01:39;;;;;;;5.70;1.30;;;40.90;76.00;;;;;;5009793;28;20022;-83
2021/07/08 06:04:04;;;;;;;2.53;1.48;;;41.50;74.80;;;;;;5010883;28;20105;-81
2021/07/08 06:06:30;;;;;;;10.70;2.03;;;41.70;74.60;;;;;;5011079;28;20097;-82
2021/07/08 06:08:56;;;;;;;3.45;1.35;;;41.50;73.20;;;;;;5011945;28;20099;-82
2021/07/08 06:11:21;;;;;;;4.00;1.30;;;41.20;73.80;;;;;;5012754;28;20014;-82
2021/07/08 06:13:47;;;;;;;6.70;1.33;;;41.90;73.20;;;;;;5012270;28;20037;-83
2021/07/08 06:16:13;;;;;;;9.57;1.45;;;42.00;72.10;;;;;;5011734;28;20024;-83
2021/07/08 06:18:39;;;;;;;5.60;1.50;;;42.60;71.80;;;;;;4994177;28;20104;-82
2021/07/08 06:21:05;;;;;;;5.03;1.38;;;42.80;71.20;;;;;;5012401;28;20033;-82
2021/07/08 06:23:32;;;;;;;1.88;1.17;;;43.20;70.20;;;;;;5012246;28;20104;-82
2021/07/08 06:25:58;;;;;;;12.23;1.35;;;43.70;70.40;;;;;;5012654;28;20402;-82
2021/07/08 06:28:24;;;;;;;2.42;1.50;;;44.20;68.90;;;;;;5012155;28;20459;-81
2021/07/08 06:30:50;;;;;;;5.60;1.25;;;44.60;67.70;;;;;;5014196;28;20054;-82
2021/07/08 06:33:16;;;;;;;18.00;1.70;;;44.20;67.30;;;;;;5012308;28;20045;-82
2021/07/08 06:35:42;;;;;;;19.20;1.50;;;44.50;67.20;;;;;;5012279;28;20038;-83
2021/07/08 06:38:08;;;;;;;14.10;1.52;;;44.30;66.20;;;;;;5019571;28;20033;-83
2021/07/08 06:40:34;;;;;;;6.90;1.30;;;44.20;66.70;;;;;;5012145;28;20034;-82
2021/07/08 06:43:00;;;;;;;5.97;0.93;;;44.20;66.60;;;;;;5011901;28;20061;-81
2021/07/08 06:45:27;;;;;;;48.92;3.95;;;44.30;66.70;;;;;;5012158;28;20021;-82
2021/07/08 06:48:00;;;;;;;8.48;1.60;;;44.40;66.60;;;;;;5012117;28;20026;-83
2021/07/08 06:50:26;;;;;;;11.02;2.47;;;44.60;66.60;;;;;;5012367;28;20053;-82
2021/07/08 06:52:52;;;;;;;12.60;2.03;;;45.10;64.90;;;;;;5011766;28;20471;-81
2021/07/08 06:55:18;;;;;;;10.43;1.30;;;44.90;65.20;;;;;;5012123;28;20109;-81
2021/07/08 06:57:53;;;;;;;11.10;1.50;;;44.50;64.40;;;;;;5014789;28;20033;-82
2021/07/08 07:00:24;;;;;;;11.57;2.20;;;44.20;64.70;;;;;;5015767;28;20026;-82
2021/07/08 07:02:50;;;;;;;5.90;1.20;;;43.90;65.90;;;;;;5015781;28;20410;-82
2021/07/08 07:05:19;;;;;;;27.33;3.25;;;43.70;66.60;;;;;;5019645;28;20459;-82
2021/07/08 07:07:46;;;;;;;22.13;2.13;;;42.80;66.60;;;;;;5015072;28;20022;-81
2021/07/08 07:10:12;;;;;;;15.77;2.50;;;42.00;68.60;;;;;;5022398;28;20719;-83
2021/07/08 07:12:46;;;;;;;34.45;2.67;;;41.30;69.70;;;;;;5015207;28;20113;-80
2021/07/08 07:15:13;;;;;;;21.90;3.25;;;40.00;71.70;;;;;;5015281;28;20022;-82
2021/07/08 07:17:39;;;;;;;23.10;2.25;;;38.90;73.60;;;;;;4997490;28;20363;-81
2021/07/08 07:20:06;;;;;;;15.25;1.67;;;37.90;75.40;;;;;;5015399;28;20084;-82
2021/07/08 07:22:32;;;;;;;10.40;2.15;;;37.20;76.50;;;;;;5015124;28;20038;-82
2021/07/08 07:24:59;;;;;;;13.13;2.20;;;37.00;77.50;;;;;;5015094;28;20030;-82
2021/07/08 07:27:25;;;;;;;8.38;2.83;;;36.80;78.20;;;;;;5015097;28;20030;-81
2021/07/08 07:29:53;;;;;;;4.88;1.92;;;36.70;78.80;;;;;;5015283;28;20398;-82
2021/07/08 07:32:19;;;;;;;14.70;3.30;;;36.70;78.60;;;;;;5015350;28;20084;-81
2021/07/08 07:34:45;;;;;;;8.27;2.03;;;36.90;78.50;;;;;;5015181;28;20029;-80
2021/07/08 07:37:11;;;;;;;3.33;1.58;;;37.20;78.60;;;;;;5015042;28;20052;-82
2021/07/08 07:39:37;;;;;;;7.70;2.10;;;37.30;78.50;;;;;;5015173;28;20056;-81
2021/07/08 07:42:05;;;;;;;3.33;1.63;;;37.30;78.80;;;;;;5015347;28;20022;-83
2021/07/08 07:44:31;;;;;;;5.88;1.63;;;37.50;78.90;;;;;;5020579;28;20030;-82
2021/07/08 07:46:57;;;;;;;1.75;1.35;;;37.80;77.50;;;;;;5020598;28;20390;-80
2021/07/08 07:49:23;;;;;;;3.17;1.30;;;38.00;75.70;;;;;;5029437;28;20040;-80
2021/07/08 07:51:49;;;;;;;15.80;1.42;;;38.10;77.80;;;;;;5026720;28;20030;-80
2021/07/08 07:54:15;;;;;;;10.57;1.75;;;38.00;75.10;;;;;;5030351;28;20036;-78
2021/07/08 07:56:41;;;;;;;4.03;1.67;;;37.90;76.40;;;;;;5026973;28;20028;-79
2021/07/08 07:59:07;;;;;;;3.92;1.50;;;37.50;76.90;;;;;;5017187;28;20109;-81
2021/07/08 08:01:33;;;;;;;9.75;1.70;;;37.10;78.10;;;;;;5014755;28;20438;-80
2021/07/08 08:04:00;;;;;;;5.45;1.40;;;36.80;79.30;;;;;;5014623;28;20033;-78
2021/07/08 08:09:11;;;;;;;6.43;1.40;;;36.10;78.10;;;;;;5014320;28;20033;-80
2021/07/08 08:11:38;;;;;;;5.72;1.52;;;36.10;79.20;;;;;;5002721;28;20021;-80
2021/07/08 08:14:07;;;;;;;5.30;1.60;;;36.20;79.60;;;;;;5028436;28;20071;-81
2021/07/08 08:16:35;;;;;;;3.03;1.70;;;36.00;80.20;;;;;;5024367;28;20018;-82
2021/07/08 08:19:01;;;;;;;7.03;1.73;;;35.90;80.90;;;;;;5000992;28;20041;-79
2021/07/08 08:21:26;;;;;;;4.63;1.52;;;35.90;80.50;;;;;;5014265;28;20022;-80
2021/07/08 08:23:54;;;;;;;16.40;2.00;;;35.90;79.90;;;;;;5015490;28;20129;-79
2021/07/08 08:26:20;;;;;;;6.70;1.23;;;36.00;79.90;;;;;;5024121;28;20076;-78
2021/07/08 08:28:46;;;;;;;7.82;1.40;;;36.00;80.60;;;;;;5029364;28;20026;-78
2021/07/08 08:31:12;;;;;;;7.75;1.85;;;35.90;80.30;;;;;;5014143;28;20022;-81
2021/07/08 08:33:37;;;;;;;3.17;1.40;;;36.10;80.80;;;;;;5020617;28;20423;-79
2021/07/08 08:36:03;;;;;;;9.70;1.58;;;36.00;81.20;;;;;;5013925;28;20036;-79
2021/07/08 08:38:31;;;;;;;2.28;1.42;;;35.80;81.50;;;;;;5013702;28;20149;-77
2021/07/08 08:40:57;;;;;;;2.42;1.63;;;35.30;82.30;;;;;;5013772;28;20045;-78
2021/07/08 08:43:25;;;;;;;6.63;2.65;;;35.10;83.70;;;;;;5013829;28;20025;-79
2021/07/08 08:45:51;;;;;;;13.18;2.67;;;34.90;90.10;;;;;;5013826;28;20478;-78
2021/07/08 08:48:20;;;;;;;2.78;2.00;;;34.60;90.80;;;;;;4995994;28;20087;-78
2021/07/08 08:50:48;;;;;;;12.30;2.80;;;34.50;91.10;;;;;;5024130;28;20018;-78
2021/07/08 08:53:17;;;;;;;11.48;2.65;;;34.50;91.20;;;;;;5018229;28;20056;-79
2021/07/08 08:55:45;;;;;;;12.05;2.78;;;34.40;91.70;;;;;;5013974;28;20084;-78
2021/07/08 08:58:16;;;;;;;11.63;2.38;;;34.20;93.50;;;;;;5026699;28;21440;-78
2021/07/08 09:00:43;;;;;;;;;;;34.30;94.60;;;;;;5023981;28;20033;-78
2021/07/08 09:03:20;;;;;;;4.03;2.17;;;34.20;95.80;;;;;;5022455;28;19905;-77
2021/07/08 09:05:55;;;;;;;6.43;2.47;;;34.10;96.20;;;;;;5014913;28;20022;-77
2021/07/08 09:08:22;;;;;;;13.30;3.05;;;34.00;96.40;;;;;;5026592;28;20041;-78
2021/07/08 09:11:08;;;;;;;10.07;2.70;;;33.80;96.60;;;;;;5013375;28;20109;-77
2021/07/08 09:13:56;;;;;;;5.80;2.50;;;33.60;96.80;;;;;;5001024;28;20018;-78
2021/07/08 09:16:25;;;;;;;6.85;2.15;;;33.50;96.30;;;;;;5026604;28;20061;-78
2021/07/08 09:19:02;;;;;;;5.82;2.53;;;33.50;96.50;;;;;;5017866;28;20044;-77
2021/07/08 09:21:30;;;;;;;10.43;2.47;;;33.50;96.10;;;;;;5017284;28;20118;-78
2021/07/08 09:24:35;;;;;;;7.22;2.20;;;33.40;94.80;;;;;;5012936;28;20060;-78
2021/07/08 09:27:07;;;;;;;7.82;2.60;;;33.40;94.40;;;;;;5000443;28;20057;-79
2021/07/08 09:29:51;;;;;;;6.10;2.17;;;33.50;94.20;;;;;;5009652;28;20033;-79
2021/07/08 09:32:19;;;;;;;6.20;1.90;;;33.60;94.10;;;;;;4999289;28;20033;-80
2021/07/08 09:34:51;;;;;;;5.53;2.50;;;33.60;94.10;;;;;;5011579;28;20041;-78
2021/07/08 09:37:22;;;;;;;5.10;2.13;;;33.60;95.10;;;;;;5022469;28;20156;-80
2021/07/08 09:39:52;;;;;;;;;;;33.60;94.90;;;;;;5000352;28;20026;-78
2021/07/08 09:42:36;;;;;;;5.68;2.00;;;33.40;95.60;;;;;;5010312;28;19995;-78
2021/07/08 09:45:07;;;;;;;15.38;2.72;;;33.40;96.00;;;;;;5008452;28;20021;-79
2021/07/08 09:47:33;;;;;;;;;;;33.60;96.00;;;;;;5012662;28;20032;-78
2021/07/08 09:49:59;;;;;;;13.45;1.92;;;33.70;96.00;;;;;;5011370;28;19917;-77
2021/07/08 09:52:25;;;;;;;15.63;1.90;;;33.90;95.70;;;;;;5023084;28;20087;-78
2021/07/08 09:57:46;;;;;;;10.88;3.53;;;34.40;95.40;;;;;;5019393;28;20477;-78
2021/07/08 10:00:28;;;;;;;5.43;2.60;;;34.30;94.60;;;;;;5012075;28;20034;-78
2021/07/08 10:02:55;;;;;;;8.27;2.38;;;34.20;94.90;;;;;;5011307;28;20021;-77
2021/07/08 10:05:25;;;;;;;4.55;2.17;;;34.10;93.30;;;;;;5011558;28;20695;-77
2021/07/08 10:07:51;;;;;;;6.70;2.20;;;33.90;93.10;;;;;;5011785;28;20045;-77
2021/07/08 10:10:17;;;;;;;9.20;3.00;;;33.60;93.40;;;;;;5021532;28;20025;-77
2021/07/08 10:12:46;;;;;;;6.80;2.63;;;33.30;93.70;;;;;;5011780;28;20471;-77
2021/07/08 10:15:13;;;;;;;4.35;2.20;;;33.20;94.20;;;;;;5011599;28;20474;-76
2021/07/08 10:17:40;;;;;;;5.60;2.33;;;33.00;94.90;;;;;;5011534;28;20021;-77
2021/07/08 10:20:09;;;;;;;15.52;3.65;;;32.90;94.80;;;;;;5011542;28;20053;-78
2021/07/08 10:22:38;;;;;;;5.93;3.15;;;32.90;94.80;;;;;;5011296;28;20034;-78
2021/07/08 10:25:11;;;;;;;12.40;2.90;;;32.80;95.10;;;;;;5011598;28;20036;-79
2021/07/08 10:27:39;;;;;;;8.88;3.53;;;32.70;95.00;;;;;;5011632;28;20016;-78
2021/07/08 10:30:07;;;;;;;17.30;3.35;;;32.60;95.20;;;;;;5011450;28;20088;-77
2021/07/08 10:32:33;;;;;;;10.05;3.00;;;32.50;95.70;;;;;;5015700;28;20106;-78
2021/07/08 10:34:59;;;;;;;13.57;3.15;;;32.40;95.60;;;;;;5018226;28;20079;-79
2021/07/08 10:37:25;;;;;;;14.90;3.45;;;32.40;96.20;;;;;;5027073;28;20433;-78
2021/07/08 10:39:52;;;;;;;16.42;2.70;;;32.20;96.40;;;;;;5027426;28;20045;-78
2021/07/08 10:42:49;;;;;;;8.52;3.08;;;32.20;96.80;;;;;;5025882;28;20029;-79
2021/07/08 10:45:42;;;;;;;8.65;2.90;;;32.20;97.00;;;;;;5027317;28;20038;-79
2021/07/08 10:48:21;;;;;;;5.70;2.85;;;32.10;97.20;;;;;;5027069;28;20038;-79
2021/07/08 10:50:48;;;;;;;12.82;3.03;;;32.10;97.50;;;;;;5023090;28;20121;-78
2021/07/08 10:53:21;;;;;;;14.38;3.53;;;32.10;97.50;;;;;;5013378;28;20157;-78
2021/07/08 10:55:59;;;;;;;5.88;2.78;;;32.10;98.00;;;;;;5010573;28;20072;-78
2021/07/08 10:58:51;;;;;;;16.13;3.05;;;32.20;97.90;;;;;;5016411;28;20034;-76
2021/07/08 11:01:22;;;;;;;19.92;3.35;;;32.20;98.60;;;;;;5014149;28;20038;-79
2021/07/08 11:03:48;;;;;;;5.60;3.00;;;32.30;98.20;;;;;;5023423;28;20483;-79
2021/07/08 11:06:25;;;;;;;8.18;3.25;;;32.40;97.40;;;;;;5009618;28;20036;-78
2021/07/08 11:08:56;;;;;;;10.80;3.85;;;32.50;97.00;;;;;;5022345;28;20033;-78
2021/07/08 11:11:22;;;;;;;8.20;2.92;;;32.70;95.90;;;;;;5024996;28;20083;-78
2021/07/08 11:13:51;;;;;;;11.52;3.10;;;33.00;95.30;;;;;;5017777;28;20022;-77
2021/07/08 11:16:40;;;;;;;8.00;2.88;;;33.30;93.90;;;;;;5016091;28;20387;-78
2021/07/08 11:19:06;;;;;;;21.73;5.10;;;33.30;92.90;;;;;;5004077;28;20384;-78
2021/07/08 11:21:53;;;;;;;7.38;2.67;;;33.30;92.40;;;;;;5014471;28;20112;-78
2021/07/08 11:24:30;;;;;;;9.90;2.40;;;33.30;91.40;;;;;;5024754;28;20038;-77
2021/07/08 11:27:07;;;;;;;46.42;5.90;;;33.30;92.10;;;;;;5020917;28;20029;-77
2021/07/08 11:29:41;;;;;;;8.35;2.85;;;33.50;92.40;;;;;;5022228;28;20033;-78
2021/07/08 11:32:31;;;;;;;13.85;7.50;;;33.60;92.00;;;;;;5026601;28;20504;-77
2021/07/08 11:35:16;;;;;;;11.23;2.55;;;33.80;91.60;;;;;;5027987;28;20029;-78
2021/07/08 11:37:50;;;;;;;10.20;2.08;;;34.00;91.40;;;;;;5025075;28;20026;-76
2021/07/08 11:40:17;;;;;;;3.88;2.10;;;34.00;90.00;;;;;;5028928;28;20048;-76
2021/07/08 11:42:47;;;;;;;3.65;2.15;;;34.10;90.50;;;;;;5027572;28;20040;-76
2021/07/08 11:45:26;;;;;;;3.35;2.00;;;34.00;90.60;;;;;;5026648;28;20049;-78
2021/07/08 11:47:57;;;;;;;7.68;2.05;;;34.20;90.30;;;;;;5025755;28;20103;-77
2021/07/08 11:50:27;;;;;;;8.95;2.35;;;34.30;90.00;;;;;;5022784;28;20063;-78
2021/07/08 11:53:16;;;;;;;10.63;3.22;;;34.40;87.60;;;;;;5026201;28;20025;-78
2021/07/08 11:55:51;;;;;;;6.45;2.60;;;34.60;88.10;;;;;;5023791;28;20021;-79
2021/07/08 11:58:24;;;;;;;14.18;2.97;;;34.70;87.50;;;;;;5025990;28;20029;-81
2021/07/08 12:00:54;;;;;;;10.82;2.03;;;34.80;86.90;;;;;;5026555;28;20401;-79
2021/07/08 12:03:31;;;;;;;11.95;2.42;;;34.70;84.80;;;;;;5021968;28;20025;-80
2021/07/08 12:06:03;;;;;;;11.45;3.42;;;34.60;87.10;;;;;;5025023;28;20029;-79
2021/07/08 12:08:30;;;;;;;30.35;3.90;;;34.40;87.00;;;;;;5024579;28;20046;-81
2021/07/08 12:11:09;;;;;;;7.63;2.08;;;34.40;88.20;;;;;;5028579;28;20024;-77
2021/07/08 12:14:07;;;;;;;7.20;2.70;;;34.40;87.70;;;;;;5027502;28;20091;-77
2021/07/08 12:16:39;;;;;;;6.22;2.22;;;34.40;87.60;;;;;;5029777;28;20370;-79
2021/07/08 12:19:23;;;;;;;4.70;1.85;;;34.40;88.40;;;;;;5023035;28;20037;-78
2021/07/08 12:21:51;;;;;;;6.10;2.30;;;34.40;87.40;;;;;;5017859;28;20495;-77
2021/07/08 12:24:23;;;;;;;10.13;2.67;;;34.50;88.00;;;;;;5019100;28;20102;-77
2021/07/08 12:26:51;;;;;;;9.85;1.90;;;34.60;86.80;;;;;;5026725;28;20033;-80
2021/07/08 12:29:19;;;;;;;10.18;2.13;;;34.80;86.30;;;;;;5023063;28;20042;-77
2021/07/08 12:31:46;;;;;;;5.45;2.88;;;35.00;88.00;;;;;;5018427;28;20040;-77
2021/07/08 12:34:13;;;;;;;4.50;2.00;;;35.00;87.80;;;;;;5016226;28;20029;-77
2021/07/08 12:36:39;;;;;;;8.85;2.38;;;35.20;86.30;;;;;;4996513;28;20030;-78
2021/07/08 12:39:07;;;;;;;13.88;2.28;;;35.20;87.10;;;;;;5022459;28;20022;-81
2021/07/08 12:41:34;;;;;;;14.75;2.30;;;35.20;87.30;;;;;;5017822;28;20064;-79
2021/07/08 12:44:08;;;;;;;4.40;1.83;;;35.10;88.00;;;;;;5025558;28;20068;-81
2021/07/08 12:46:34;;;;;;;6.45;2.08;;;35.00;87.20;;;;;;5009278;28;20026;-80
2021/07/08 12:49:01;;;;;;;6.13;1.88;;;35.00;86.40;;;;;;5007937;28;20038;-79
2021/07/08 12:51:27;;;;;;;4.88;2.03;;;34.90;86.20;;;;;;5006699;28;20028;-78
2021/07/08 12:53:53;;;;;;;13.45;2.58;;;34.90;83.70;;;;;;5027335;28;20036;-79
2021/07/08 12:56:22;;;;;;;13.23;3.00;;;34.80;84.60;;;;;;5016828;28;20029;-77
2021/07/08 12:58:56;;;;;;;9.63;2.53;;;34.70;82.60;;;;;;5022211;28;20026;-79